Terminal Aerodrome Forecast
Issued by NWS

Home | Current Version | Previous Version | Text Only | Print | Product List | Glossary On
Versions: 1 2 3 4 5 6 7 8 9 10 11 12 13 14 15 16 17 18 19 20 21 22 23 24 25 26
000
FTUS43 KDMX 221500 AAC
TAFOTM
TAF AMD
KOTM 221500Z 2215/2312 06011KT P6SM -SN SCT008 OVC017
      TEMPO 2215/2217 3SM -FZDZ BR
     FM221700 09009KT P6SM VCSH OVC008
     FM230200 11008KT 1/2SM -RA OVC003
     FM230600 15005KT 1 1/2SM -DZ OVC003
     FM230900 24005KT P6SM OVC004=

USA.gov is the U.S. government's official web portal to all federal, state and local government web resources and services.